Empress, Canada
Current Conditions -  °F | °C
As of 6:00 PM on Tuesday 21 Oct 2014 (Local Time) from CYKY Reporting Station
Overcast Overcast  
Wind Chill: 55°   Ceiling: 5000
Heat Index: 55°   Visibility: 15mi
Dew Point: 41°   Wind: 8mph
Humidity: 58%   Direction: 310°NW
Pressure: 29.6"   Gusts: NA
Location:  50.97°N, 110.02°W
Report Text: CYKY 220000Z 31007KT 15SM OVC050 13/05 A2960 RMK SC8 SLP035 DENSITY ALT 2800FT
Loading
Personal Weather Stations






























Interactive Weather Map
Tropical Storm Tracking
New forecast layout! Learn more

10-Day Weather Forecast

Advertisements
Track Severe Weather on mobile